Buoy 46611

sailwx.info

Track history (hours):
 
Tides and Currents Weather Stations Pressure Air Temp Water Temp Dewpoint Dewpoint Depression Visibility Wind Speed Wind Dir Waves Ship Positions

Drifting buoy 46611

Last reported at 2014-Dec-19 06:00 UTC. Time now 2014-Dec-19 08:34 UTC.
Position N 54°20' W 136°33'.

Barometer 986.9 mb
Water temperature 8.1 ° C

Date/timePositionNaut miles runAvg speedWind from/ knotsBaromVisibWave heightAir tempDewpointWater temp
2014-Dec-19 06:00N 54°20' W 136°33'3 1.4 986.9 8.1
2014-Dec-19 04:00N 54°20' W 136°28'0 0.0 986.9 8.1
2014-Dec-19 03:00N 54°20' W 136°28'2 1.6 987.0 8.1
2014-Dec-19 02:00N 54°21' W 136°25'2 1.0 986.6 8.1
2014-Dec-19 00:00N 54°20' W 136°28'1 0.9 986.1 8.1
2014-Dec-18 23:00N 54°19' W 136°29'0 0.1 985.3 8.1
2014-Dec-18 21:00N 54°19' W 136°29'1 1.4 983.3 8.1
2014-Dec-18 20:00N 54°18' W 136°28'1 0.6 982.3 8.1
2014-Dec-18 19:00N 54°18' W 136°29'2 2.0 981.1 8.1
2014-Dec-18 18:00N 54°17' W 136°28'0 0.0 980.3 8.1
2014-Dec-18 17:00N 54°17' W 136°28'3 1.5 981.5 8.1
2014-Dec-18 15:00N 54°15' W 136°23'1 0.6 985.2 8.1
2014-Dec-18 14:00N 54°16' W 136°24'1 1.4 987.5 8.1
2014-Dec-18 13:00N 54°14' W 136°23'0 0.0 989.2 8.1
2014-Dec-18 12:00N 54°14' W 136°23'4 3.5 990.4 8.2
2014-Dec-18 11:00N 54°11' W 136°20'0 0.0 991.6 8.2
2014-Dec-18 08:00N 54°11' W 136°20'1 0.9 995.0 8.2
2014-Dec-18 07:00N 54°11' W 136°20'0 0.0 995.5 8.2
2014-Dec-18 06:00N 54°11' W 136°20'1 0.5 996.5 8.2
2014-Dec-18 05:00N 54°11' W 136°19'2 2.0 997.9 8.2
2014-Dec-18 04:00N 54°10' W 136°16'0 0.0 998.6 8.2
2014-Dec-18 03:00N 54°10' W 136°16'1 0.5 998.9 8.2
2014-Dec-18 01:00N 54°11' W 136°17'0 0.3 999.8 8.2
2014-Dec-18 00:00N 54°10' W 136°18'1 0.8 1000.1 8.2
2014-Dec-17 23:00N 54°10' W 136°18'0 0.0 1000.5 8.2
2014-Dec-17 21:00N 54°10' W 136°18'2 0.8 1000.7 8.2
2014-Dec-17 19:00N 54°10' W 136°16'2 0.7 1002.3 8.2
2014-Dec-17 16:00N 54°08' W 136°14'1 0.5 1001.4 8.2
2014-Dec-17 15:00N 54°08' W 136°13'1 0.5 1001.2 8.2
2014-Dec-17 14:00N 54°08' W 136°13'1 0.9 1001.5 8.2
2014-Dec-17 13:00N 54°08' W 136°12'0 0.0 1001.3 8.1
2014-Dec-17 12:00N 54°08' W 136°12'2 1.9 1001.6 8.2
2014-Dec-17 11:00N 54°06' W 136°10'0 0.0 1001.4 8.2
2014-Dec-17 10:00N 54°06' W 136°10'0 0.0 1001.4 8.1
2014-Dec-17 08:00N 54°06' W 136°10'0 0.0 1001.3 8.1
2014-Dec-17 06:00N 54°06' W 136°10'2 2.0 1001.5 8.1
2014-Dec-17 05:00N 54°05' W 136°07'0 0.0 1001.6 8.1
2014-Dec-17 04:00N 54°05' W 136°07'0 0.5 1001.7 8.1
2014-Dec-17 03:00N 54°05' W 136°08'0 0.0 1001.8 8.2
2014-Dec-17 02:00N 54°05' W 136°08'0 0.2 1001.7 8.2
2014-Dec-17 01:00N 54°05' W 136°08'0 0.4 1001.8 8.2
2014-Dec-17 00:00N 54°04' W 136°08'1 0.6 1001.7 8.2
2014-Dec-16 23:00N 54°04' W 136°08'0 0.2 1001.7 8.2
2014-Dec-16 21:00N 54°04' W 136°08'0 0.3 1001.5 8.2
2014-Dec-16 20:00N 54°04' W 136°07'1 1.2 1001.6 8.1
2014-Dec-16 19:00N 54°05' W 136°07'0 0.0 1001.3 8.1
2014-Dec-16 18:00N 54°05' W 136°07'0 0.0 1000.9 8.1
2014-Dec-16 17:00N 54°05' W 136°07'3 0.2 1000.6 8.1
2014-Dec-15 23:00N 54°02' W 136°07'2 2.1 991.8 8.0
2014-Dec-15 22:00N 54°00' W 136°09'2 1.8 991.8 8.1
2014-Dec-15 21:00N 54°00' W 136°06'1 1.1 992.1 8.1
2014-Dec-15 20:00N 54°00' W 136°08'0 0.0 992.2 8.1
2014-Dec-15 19:00N 54°00' W 136°08'2 1.5 991.6 8.1
2014-Dec-15 18:00N 53°59' W 136°05'2 1.5 991.3 8.1
2014-Dec-15 17:00N 53°59' W 136°08'0 0.0 991.5 8.2
2014-Dec-15 16:00N 53°59' W 136°08'2 1.6 991.9 8.2
2014-Dec-15 15:00N 53°58' W 136°06'0 0.0 992.7 8.3
2014-Dec-15 14:00N 53°58' W 136°06'0 0.4 993.8 8.3
2014-Dec-15 13:00N 53°58' W 136°07'2 1.5 994.9 8.3
2014-Dec-15 12:00N 53°57' W 136°04'1 1.4 996.0 8.3
2014-Dec-15 11:00N 53°56' W 136°05'3 2.5 997.1 8.4
2014-Dec-15 10:00N 53°54' W 136°02'3 2.5 997.5 8.4
2014-Dec-15 09:00N 53°56' W 136°05'3 1.3 997.8 8.4
2014-Dec-15 07:00N 53°54' W 136°02'1 0.7 998.3 8.4
2014-Dec-15 06:00N 53°53' W 136°03'1 0.7 998.1 8.4
2014-Dec-15 05:00N 53°53' W 136°02'0 0.0 997.7 8.4
2014-Dec-15 04:00N 53°53' W 136°02'0 0.4 998.3 8.4
2014-Dec-15 03:00N 53°53' W 136°02'1 0.9 998.5 8.4
2014-Dec-15 02:00N 53°52' W 136°01'0 0.0 998.5 8.4
2014-Dec-15 01:00N 53°52' W 136°01'1 1.4 999.1 8.4
2014-Dec-15 00:00N 53°51' W 136°02'2 2.1 999.6 8.4
2014-Dec-14 23:00N 53°49' W 136°00'0 0.0 1000.1 8.4
2014-Dec-14 22:00N 53°49' W 136°00'0 0.0 999.8 8.4
2014-Dec-14 21:00N 53°49' W 136°00'1 0.6 999.5 8.3
2014-Dec-14 20:00N 53°49' W 136°00'1 0.7 1000.0 8.3
2014-Dec-14 19:00N 53°48' W 136°01'1 1.4 1000.2 8.1
2014-Dec-14 18:00N 53°47' W 135°59'2 1.6 1000.2 8.1
2014-Dec-14 17:00N 53°46' W 135°58'0 0.0 1000.4 8.2
2014-Dec-14 16:00N 53°46' W 135°58'1 0.9 1000.4 8.3
2014-Dec-14 15:00N 53°45' W 135°59'2 2.1 1000.6 8.4
2014-Dec-14 14:00N 53°44' W 135°56'2 2.4 1000.9 8.5
2014-Dec-14 13:00N 53°41' W 135°56'1 1.3 1001.4 8.5
2014-Dec-14 12:00N 53°40' W 135°56'0 0.0 1002.4 8.5
2014-Dec-14 11:00N 53°40' W 135°56'3 2.8 1002.8 8.5
2014-Dec-14 10:00N 53°38' W 135°54'3 2.8 1003.5 8.6
2014-Dec-14 09:00N 53°40' W 135°56'3 1.4 1004.1 8.6
2014-Dec-14 07:00N 53°38' W 135°54'0 0.0 1004.6 8.7
2014-Dec-14 06:00N 53°38' W 135°54'0 0.4 1004.5 8.8
2014-Dec-14 05:00N 53°38' W 135°53'2 1.6 1004.6 8.9
2014-Dec-14 04:00N 53°37' W 135°55'3 2.5 1004.8 8.6
2014-Dec-14 03:00N 53°34' W 135°56'0 0.2 1004.9 8.9
2014-Dec-14 02:00N 53°34' W 135°56'2 2.0 1005.3 9.1
2014-Dec-14 01:00N 53°32' W 135°56'1 0.7 1005.5 9.3
2014-Dec-14 00:00N 53°32' W 135°55'0 0.0 1005.9 9.5
2014-Dec-13 23:00N 53°32' W 135°55'14 0.6 1006.4 9.6
2014-Dec-13 00:00N 53°19' W 136°04'4 1.9 1006.5 8.6
2014-Dec-12 22:00N 53°16' W 136°08'0 0.0 1005.5 8.7
2014-Dec-12 21:00N 53°16' W 136°08'1 0.9 1005.5 8.5
2014-Dec-12 20:00N 53°16' W 136°09'1 0.9 1005.1 8.5
2014-Dec-12 19:00N 53°15' W 136°10'0 0.1 1004.5 8.5
2014-Dec-12 18:00N 53°16' W 136°10'0 0.0 1003.5 8.5
2014-Dec-12 17:00N 53°16' W 136°10'11 0.9 1002.6 8.5
2014-Dec-12 05:00N 53°14' W 136°29'1 1.2 993.8 8.7
2014-Dec-12 04:00N 53°14' W 136°31'3 1.3 993.2 8.6
2014-Dec-12 02:00N 53°14' W 136°35'0 0.3 991.9 8.5
2014-Dec-12 01:00N 53°14' W 136°35'1 0.6 991.3 8.3
2014-Dec-12 00:00N 53°14' W 136°34'1 0.8 990.8 8.3
2014-Dec-11 23:00N 53°14' W 136°35'1 1.3 990.4 8.3
2014-Dec-11 22:00N 53°14' W 136°37'0 0.0 989.7 8.3
2014-Dec-11 21:00N 53°14' W 136°37'0 0.2 989.1 8.3
2014-Dec-11 20:00N 53°14' W 136°38'2 1.8 988.4 8.3
2014-Dec-11 19:00N 53°15' W 136°40'1 1.0 987.6 8.3
2014-Dec-11 18:00N 53°15' W 136°42'0 0.0 986.4 8.3
2014-Dec-11 17:00N 53°15' W 136°42'1 1.2 985.6 8.3
2014-Dec-11 16:00N 53°14' W 136°44'1 1.0 984.5 8.3
2014-Dec-11 15:00N 53°15' W 136°45'0 0.4 983.5 8.3
2014-Dec-11 14:00N 53°14' W 136°45'0 0.2 982.5 8.3
2014-Dec-11 13:00N 53°14' W 136°45'0 0.4 981.4 8.3
2014-Dec-11 12:00N 53°15' W 136°46'1 0.5 980.2 8.3
2014-Dec-11 11:00N 53°15' W 136°46'3 3.1 978.7 8.3
2014-Dec-11 10:00N 53°17' W 136°48'1 0.4 977.4 8.3
2014-Dec-11 06:00N 53°18' W 136°51'0 0.0 972.0 8.3
2014-Dec-11 05:00N 53°18' W 136°51'1 0.5 970.4 8.3
2014-Dec-11 02:00N 53°17' W 136°52'1 0.7 967.7 8.3
2014-Dec-11 01:00N 53°16' W 136°53'1 0.6 966.9 8.3
2014-Dec-11 00:00N 53°16' W 136°52'1 1.0 966.0 8.3
2014-Dec-10 23:00N 53°16' W 136°51'1 1.4 965.3 8.4
2014-Dec-10 22:00N 53°17' W 136°49'0 0.0 965.5 8.5
2014-Dec-10 21:00N 53°17' W 136°49'1 0.9 966.2 8.6
2014-Dec-10 20:00N 53°17' W 136°47'3 3.3 968.3 8.6
2014-Dec-10 19:00N 53°20' W 136°46'0 0.0 969.8 8.6
2014-Dec-10 17:00N 53°20' W 136°46'0 0.0 971.6 8.6
2014-Dec-10 16:00N 53°20' W 136°46'1 0.7 973.0 8.6
2014-Dec-10 14:00N 53°20' W 136°49'1 0.6 976.7 8.6
2014-Dec-10 13:00N 53°19' W 136°48'1 0.9 978.7 8.6
2014-Dec-10 12:00N 53°18' W 136°49'2 1.7 980.9 8.6
2014-Dec-10 11:00N 53°19' W 136°46'0 0.0 982.5 8.6
2014-Dec-10 08:00N 53°19' W 136°46'0 0.0 985.7 8.6
2014-Dec-10 07:00N 53°19' W 136°46'1 0.7 986.2 8.6
2014-Dec-10 05:00N 53°19' W 136°48'0 0.0 986.0 8.6
2014-Dec-10 04:00N 53°19' W 136°48'1 0.6 985.1 8.6
2014-Dec-10 03:00N 53°19' W 136°49'0 0.1 984.4 8.6
2014-Dec-10 02:00N 53°19' W 136°49'2 1.2 983.1 8.6
2014-Dec-10 00:00N 53°17' W 136°53'1 1.1 979.8 8.6
2014-Dec-09 23:00N 53°17' W 136°54'1 0.4 977.7 8.6
2014-Dec-09 21:00N 53°16' W 136°53'1 1.4 974.2 8.6
2014-Dec-09 20:00N 53°17' W 136°55'1 0.4 972.9 8.6
2014-Dec-09 18:00N 53°17' W 136°54'0 0.2 971.1 8.6
2014-Dec-09 17:00N 53°17' W 136°53'0 0.1 970.3 8.6
2014-Dec-09 16:00N 53°17' W 136°54'0 0.4 970.2 8.6
2014-Dec-09 15:00N 53°17' W 136°54'0 0.1 970.4 8.7
2014-Dec-09 14:00N 53°17' W 136°54'0 0.3 970.2 8.7
2014-Dec-09 13:00N 53°17' W 136°54'1 0.5 970.3 8.7
2014-Dec-09 11:00N 53°16' W 136°55'3 0.6 973.9 8.6
2014-Dec-09 07:00N 53°14' W 136°57'0 0.0 978.3 8.7
2014-Dec-09 06:00N 53°14' W 136°57'   978.8 8.7
Track history (hours):
 
Tides and Currents Weather Stations Pressure Air Temp Water Temp Dewpoint Dewpoint Depression Visibility Wind Speed Wind Dir Waves Ship Positions

Drifting buoy 46611

Last reported at 2014-Dec-19 06:00 UTC. Time now 2014-Dec-19 08:34 UTC.
Position N 54°20' W 136°33'.

Barometer 986.9 mb
Water temperature 8.1 ° C

Date/timePositionNaut miles runAvg speedWind from/ knotsBaromVisibWave heightAir tempDewpointWater temp
2014-Dec-19 06:00N 54°20' W 136°33'3 1.4 986.9 8.1
2014-Dec-19 04:00N 54°20' W 136°28'0 0.0 986.9 8.1
2014-Dec-19 03:00N 54°20' W 136°28'2 1.6 987.0 8.1
2014-Dec-19 02:00N 54°21' W 136°25'2 1.0 986.6 8.1
2014-Dec-19 00:00N 54°20' W 136°28'1 0.9 986.1 8.1
2014-Dec-18 23:00N 54°19' W 136°29'0 0.1 985.3 8.1
2014-Dec-18 21:00N 54°19' W 136°29'1 1.4 983.3 8.1
2014-Dec-18 20:00N 54°18' W 136°28'1 0.6 982.3 8.1
2014-Dec-18 19:00N 54°18' W 136°29'2 2.0 981.1 8.1
2014-Dec-18 18:00N 54°17' W 136°28'0 0.0 980.3 8.1
2014-Dec-18 17:00N 54°17' W 136°28'3 1.5 981.5 8.1
2014-Dec-18 15:00N 54°15' W 136°23'1 0.6 985.2 8.1
2014-Dec-18 14:00N 54°16' W 136°24'1 1.4 987.5 8.1
2014-Dec-18 13:00N 54°14' W 136°23'0 0.0 989.2 8.1
2014-Dec-18 12:00N 54°14' W 136°23'4 3.5 990.4 8.2
2014-Dec-18 11:00N 54°11' W 136°20'0 0.0 991.6 8.2
2014-Dec-18 08:00N 54°11' W 136°20'1 0.9 995.0 8.2
2014-Dec-18 07:00N 54°11' W 136°20'0 0.0 995.5 8.2
2014-Dec-18 06:00N 54°11' W 136°20'1 0.5 996.5 8.2
2014-Dec-18 05:00N 54°11' W 136°19'2 2.0 997.9 8.2
2014-Dec-18 04:00N 54°10' W 136°16'0 0.0 998.6 8.2
2014-Dec-18 03:00N 54°10' W 136°16'1 0.5 998.9 8.2
2014-Dec-18 01:00N 54°11' W 136°17'0 0.3 999.8 8.2
2014-Dec-18 00:00N 54°10' W 136°18'1 0.8 1000.1 8.2
2014-Dec-17 23:00N 54°10' W 136°18'0 0.0 1000.5 8.2
2014-Dec-17 21:00N 54°10' W 136°18'2 0.8 1000.7 8.2
2014-Dec-17 19:00N 54°10' W 136°16'2 0.7 1002.3 8.2
2014-Dec-17 16:00N 54°08' W 136°14'1 0.5 1001.4 8.2
2014-Dec-17 15:00N 54°08' W 136°13'1 0.5 1001.2 8.2
2014-Dec-17 14:00N 54°08' W 136°13'1 0.9 1001.5 8.2
2014-Dec-17 13:00N 54°08' W 136°12'0 0.0 1001.3 8.1
2014-Dec-17 12:00N 54°08' W 136°12'2 1.9 1001.6 8.2
2014-Dec-17 11:00N 54°06' W 136°10'0 0.0 1001.4 8.2
2014-Dec-17 10:00N 54°06' W 136°10'0 0.0 1001.4 8.1
2014-Dec-17 08:00N 54°06' W 136°10'0 0.0 1001.3 8.1
2014-Dec-17 06:00N 54°06' W 136°10'2 2.0 1001.5 8.1
2014-Dec-17 05:00N 54°05' W 136°07'0 0.0 1001.6 8.1
2014-Dec-17 04:00N 54°05' W 136°07'0 0.5 1001.7 8.1
2014-Dec-17 03:00N 54°05' W 136°08'0 0.0 1001.8 8.2
2014-Dec-17 02:00N 54°05' W 136°08'0 0.2 1001.7 8.2
2014-Dec-17 01:00N 54°05' W 136°08'0 0.4 1001.8 8.2
2014-Dec-17 00:00N 54°04' W 136°08'1 0.6 1001.7 8.2
2014-Dec-16 23:00N 54°04' W 136°08'0 0.2 1001.7 8.2
2014-Dec-16 21:00N 54°04' W 136°08'0 0.3 1001.5 8.2
2014-Dec-16 20:00N 54°04' W 136°07'1 1.2 1001.6 8.1
2014-Dec-16 19:00N 54°05' W 136°07'0 0.0 1001.3 8.1
2014-Dec-16 18:00N 54°05' W 136°07'0 0.0 1000.9 8.1
2014-Dec-16 17:00N 54°05' W 136°07'3 0.2 1000.6 8.1
2014-Dec-15 23:00N 54°02' W 136°07'2 2.1 991.8 8.0
2014-Dec-15 22:00N 54°00' W 136°09'2 1.8 991.8 8.1
2014-Dec-15 21:00N 54°00' W 136°06'1 1.1 992.1 8.1
2014-Dec-15 20:00N 54°00' W 136°08'0 0.0 992.2 8.1
2014-Dec-15 19:00N 54°00' W 136°08'2 1.5 991.6 8.1
2014-Dec-15 18:00N 53°59' W 136°05'2 1.5 991.3 8.1
2014-Dec-15 17:00N 53°59' W 136°08'0 0.0 991.5 8.2
2014-Dec-15 16:00N 53°59' W 136°08'2 1.6 991.9 8.2
2014-Dec-15 15:00N 53°58' W 136°06'0 0.0 992.7 8.3
2014-Dec-15 14:00N 53°58' W 136°06'0 0.4 993.8 8.3
2014-Dec-15 13:00N 53°58' W 136°07'2 1.5 994.9 8.3
2014-Dec-15 12:00N 53°57' W 136°04'1 1.4 996.0 8.3
2014-Dec-15 11:00N 53°56' W 136°05'3 2.5 997.1 8.4
2014-Dec-15 10:00N 53°54' W 136°02'3 2.5 997.5 8.4
2014-Dec-15 09:00N 53°56' W 136°05'3 1.3 997.8 8.4
2014-Dec-15 07:00N 53°54' W 136°02'1 0.7 998.3 8.4
2014-Dec-15 06:00N 53°53' W 136°03'1 0.7 998.1 8.4
2014-Dec-15 05:00N 53°53' W 136°02'0 0.0 997.7 8.4
2014-Dec-15 04:00N 53°53' W 136°02'0 0.4 998.3 8.4
2014-Dec-15 03:00N 53°53' W 136°02'1 0.9 998.5 8.4
2014-Dec-15 02:00N 53°52' W 136°01'0 0.0 998.5 8.4
2014-Dec-15 01:00N 53°52' W 136°01'1 1.4 999.1 8.4
2014-Dec-15 00:00N 53°51' W 136°02'2 2.1 999.6 8.4
2014-Dec-14 23:00N 53°49' W 136°00'0 0.0 1000.1 8.4
2014-Dec-14 22:00N 53°49' W 136°00'0 0.0 999.8 8.4
2014-Dec-14 21:00N 53°49' W 136°00'1 0.6 999.5 8.3
2014-Dec-14 20:00N 53°49' W 136°00'1 0.7 1000.0 8.3
2014-Dec-14 19:00N 53°48' W 136°01'1 1.4 1000.2 8.1
2014-Dec-14 18:00N 53°47' W 135°59'2 1.6 1000.2 8.1
2014-Dec-14 17:00N 53°46' W 135°58'0 0.0 1000.4 8.2
2014-Dec-14 16:00N 53°46' W 135°58'1 0.9 1000.4 8.3
2014-Dec-14 15:00N 53°45' W 135°59'2 2.1 1000.6 8.4
2014-Dec-14 14:00N 53°44' W 135°56'2 2.4 1000.9 8.5
2014-Dec-14 13:00N 53°41' W 135°56'1 1.3 1001.4 8.5
2014-Dec-14 12:00N 53°40' W 135°56'0 0.0 1002.4 8.5
2014-Dec-14 11:00N 53°40' W 135°56'3 2.8 1002.8 8.5
2014-Dec-14 10:00N 53°38' W 135°54'3 2.8 1003.5 8.6
2014-Dec-14 09:00N 53°40' W 135°56'3 1.4 1004.1 8.6
2014-Dec-14 07:00N 53°38' W 135°54'0 0.0 1004.6 8.7
2014-Dec-14 06:00N 53°38' W 135°54'0 0.4 1004.5 8.8
2014-Dec-14 05:00N 53°38' W 135°53'2 1.6 1004.6 8.9
2014-Dec-14 04:00N 53°37' W 135°55'3 2.5 1004.8 8.6
2014-Dec-14 03:00N 53°34' W 135°56'0 0.2 1004.9 8.9
2014-Dec-14 02:00N 53°34' W 135°56'2 2.0 1005.3 9.1
2014-Dec-14 01:00N 53°32' W 135°56'1 0.7 1005.5 9.3
2014-Dec-14 00:00N 53°32' W 135°55'0 0.0 1005.9 9.5
2014-Dec-13 23:00N 53°32' W 135°55'14 0.6 1006.4 9.6
2014-Dec-13 00:00N 53°19' W 136°04'4 1.9 1006.5 8.6
2014-Dec-12 22:00N 53°16' W 136°08'0 0.0 1005.5 8.7
2014-Dec-12 21:00N 53°16' W 136°08'1 0.9 1005.5 8.5
2014-Dec-12 20:00N 53°16' W 136°09'1 0.9 1005.1 8.5
2014-Dec-12 19:00N 53°15' W 136°10'0 0.1 1004.5 8.5
2014-Dec-12 18:00N 53°16' W 136°10'0 0.0 1003.5 8.5
2014-Dec-12 17:00N 53°16' W 136°10'11 0.9 1002.6 8.5
2014-Dec-12 05:00N 53°14' W 136°29'1 1.2 993.8 8.7
2014-Dec-12 04:00N 53°14' W 136°31'3 1.3 993.2 8.6
2014-Dec-12 02:00N 53°14' W 136°35'0 0.3 991.9 8.5
2014-Dec-12 01:00N 53°14' W 136°35'1 0.6 991.3 8.3
2014-Dec-12 00:00N 53°14' W 136°34'1 0.8 990.8 8.3
2014-Dec-11 23:00N 53°14' W 136°35'1 1.3 990.4 8.3
2014-Dec-11 22:00N 53°14' W 136°37'0 0.0 989.7 8.3
2014-Dec-11 21:00N 53°14' W 136°37'0 0.2 989.1 8.3
2014-Dec-11 20:00N 53°14' W 136°38'2 1.8 988.4 8.3
2014-Dec-11 19:00N 53°15' W 136°40'1 1.0 987.6 8.3
2014-Dec-11 18:00N 53°15' W 136°42'0 0.0 986.4 8.3
2014-Dec-11 17:00N 53°15' W 136°42'1 1.2 985.6 8.3
2014-Dec-11 16:00N 53°14' W 136°44'1 1.0 984.5 8.3
2014-Dec-11 15:00N 53°15' W 136°45'0 0.4 983.5 8.3
2014-Dec-11 14:00N 53°14' W 136°45'0 0.2 982.5 8.3
2014-Dec-11 13:00N 53°14' W 136°45'0 0.4 981.4 8.3
2014-Dec-11 12:00N 53°15' W 136°46'1 0.5 980.2 8.3
2014-Dec-11 11:00N 53°15' W 136°46'3 3.1 978.7 8.3
2014-Dec-11 10:00N 53°17' W 136°48'1 0.4 977.4 8.3
2014-Dec-11 06:00N 53°18' W 136°51'0 0.0 972.0 8.3
2014-Dec-11 05:00N 53°18' W 136°51'1 0.5 970.4 8.3
2014-Dec-11 02:00N 53°17' W 136°52'1 0.7 967.7 8.3
2014-Dec-11 01:00N 53°16' W 136°53'1 0.6 966.9 8.3
2014-Dec-11 00:00N 53°16' W 136°52'1 1.0 966.0 8.3
2014-Dec-10 23:00N 53°16' W 136°51'1 1.4 965.3 8.4
2014-Dec-10 22:00N 53°17' W 136°49'0 0.0 965.5 8.5
2014-Dec-10 21:00N 53°17' W 136°49'1 0.9 966.2 8.6
2014-Dec-10 20:00N 53°17' W 136°47'3 3.3 968.3 8.6
2014-Dec-10 19:00N 53°20' W 136°46'0 0.0 969.8 8.6
2014-Dec-10 17:00N 53°20' W 136°46'0 0.0 971.6 8.6
2014-Dec-10 16:00N 53°20' W 136°46'1 0.7 973.0 8.6
2014-Dec-10 14:00N 53°20' W 136°49'1 0.6 976.7 8.6
2014-Dec-10 13:00N 53°19' W 136°48'1 0.9 978.7 8.6
2014-Dec-10 12:00N 53°18' W 136°49'2 1.7 980.9 8.6
2014-Dec-10 11:00N 53°19' W 136°46'0 0.0 982.5 8.6
2014-Dec-10 08:00N 53°19' W 136°46'0 0.0 985.7 8.6
2014-Dec-10 07:00N 53°19' W 136°46'1 0.7 986.2 8.6
2014-Dec-10 05:00N 53°19' W 136°48'0 0.0 986.0 8.6
2014-Dec-10 04:00N 53°19' W 136°48'1 0.6 985.1 8.6
2014-Dec-10 03:00N 53°19' W 136°49'0 0.1 984.4 8.6
2014-Dec-10 02:00N 53°19' W 136°49'2 1.2 983.1 8.6
2014-Dec-10 00:00N 53°17' W 136°53'1 1.1 979.8 8.6
2014-Dec-09 23:00N 53°17' W 136°54'1 0.4 977.7 8.6
2014-Dec-09 21:00N 53°16' W 136°53'1 1.4 974.2 8.6
2014-Dec-09 20:00N 53°17' W 136°55'1 0.4 972.9 8.6
2014-Dec-09 18:00N 53°17' W 136°54'0 0.2 971.1 8.6
2014-Dec-09 17:00N 53°17' W 136°53'0 0.1 970.3 8.6
2014-Dec-09 16:00N 53°17' W 136°54'0 0.4 970.2 8.6
2014-Dec-09 15:00N 53°17' W 136°54'0 0.1 970.4 8.7
2014-Dec-09 14:00N 53°17' W 136°54'0 0.3 970.2 8.7
2014-Dec-09 13:00N 53°17' W 136°54'1 0.5 970.3 8.7
2014-Dec-09 11:00N 53°16' W 136°55'3 0.6 973.9 8.6
2014-Dec-09 07:00N 53°14' W 136°57'0 0.0 978.3 8.7
2014-Dec-09 06:00N 53°14' W 136°57'   978.8 8.7

Dump ship's entire track history